createdAt,value
2022-11-08T00:00:44.051Z,6.20
2022-11-08T00:03:13.493Z,6.20
2022-11-08T00:06:00.005Z,6.20
2022-11-08T00:08:46.958Z,6.30
2022-11-08T00:11:39.001Z,6.10
2022-11-08T00:14:08.992Z,6.00
2022-11-08T00:16:38.189Z,6.00
2022-11-08T00:19:07.611Z,6.00
2022-11-08T00:21:35.888Z,6.00
2022-11-08T00:24:03.938Z,6.00
2022-11-08T00:26:32.057Z,6.00
2022-11-08T00:29:01.633Z,6.00
2022-11-08T00:31:32.583Z,6.00
2022-11-08T00:34:00.624Z,6.10
2022-11-08T00:36:35.012Z,6.10
2022-11-08T00:39:03.605Z,6.00
2022-11-08T00:41:32.426Z,6.00
2022-11-08T00:44:00.590Z,6.10
2022-11-08T00:46:30.353Z,6.00
2022-11-08T00:49:01.444Z,6.00
2022-11-08T00:51:31.056Z,5.80
2022-11-08T00:53:59.143Z,5.80
2022-11-08T00:56:28.344Z,5.80
2022-11-08T00:58:57.609Z,5.70
2022-11-08T01:01:26.308Z,5.60
2022-11-08T01:03:54.823Z,5.70
2022-11-08T01:06:24.763Z,5.70
2022-11-08T01:08:55.912Z,5.60
2022-11-08T01:11:25.350Z,5.70
2022-11-08T01:13:56.805Z,5.70
2022-11-08T01:16:26.876Z,5.70
2022-11-08T01:18:56.814Z,5.70
2022-11-08T01:21:26.577Z,5.60
2022-11-08T01:23:56.180Z,5.80
2022-11-08T01:26:26.507Z,5.70
2022-11-08T01:28:54.995Z,5.70
2022-11-08T01:31:24.602Z,5.60
2022-11-08T01:33:52.610Z,5.60
2022-11-08T01:36:22.974Z,5.60
2022-11-08T01:38:51.584Z,5.70
2022-11-08T01:41:22.982Z,5.70
2022-11-08T01:43:52.375Z,5.60
2022-11-08T01:46:42.713Z,5.60
2022-11-08T01:49:52.718Z,5.50
2022-11-08T01:52:30.463Z,5.50
2022-11-08T01:55:14.356Z,5.40
2022-11-08T01:57:50.234Z,5.40
2022-11-08T02:00:19.341Z,5.40
2022-11-08T02:02:50.937Z,5.40
2022-11-08T02:05:26.659Z,5.30
2022-11-08T02:08:03.346Z,5.30
2022-11-08T02:10:35.643Z,5.30
2022-11-08T02:13:13.344Z,5.20
2022-11-08T02:15:43.231Z,5.20
2022-11-08T02:18:11.757Z,5.40
2022-11-08T02:20:42.331Z,5.20
2022-11-08T02:23:16.438Z,5.20
2022-11-08T02:25:45.926Z,5.10
2022-11-08T02:28:14.301Z,5.10
2022-11-08T02:30:42.497Z,5.10
2022-11-08T02:33:18.221Z,5.20
2022-11-08T02:35:50.466Z,5.10
2022-11-08T02:38:19.332Z,5.20
2022-11-08T02:40:50.288Z,5.10
2022-11-08T02:43:18.395Z,5.20
2022-11-08T02:45:46.767Z,5.20
2022-11-08T02:48:17.775Z,5.20
2022-11-08T02:50:46.477Z,5.20
2022-11-08T02:53:14.755Z,5.10
2022-11-08T02:55:43.076Z,5.00
2022-11-08T02:58:13.054Z,5.00
2022-11-08T03:00:41.343Z,5.00
2022-11-08T03:03:09.470Z,5.10
2022-11-08T03:05:37.550Z,5.00
2022-11-08T03:08:05.981Z,4.90
2022-11-08T03:10:34.057Z,4.90
2022-11-08T03:13:03.974Z,4.90
2022-11-08T03:15:34.112Z,4.70
2022-11-08T03:18:02.563Z,4.70
2022-11-08T03:20:33.216Z,4.70
2022-11-08T03:23:03.298Z,4.60
2022-11-08T03:25:31.844Z,4.70
2022-11-08T03:28:03.896Z,4.60
2022-11-08T03:30:33.611Z,4.60
2022-11-08T03:33:01.856Z,4.70
2022-11-08T03:35:29.904Z,4.70
2022-11-08T03:37:58.781Z,4.70
2022-11-08T03:40:27.453Z,4.70
2022-11-08T03:42:57.295Z,4.60
2022-11-08T03:45:25.298Z,4.50
2022-11-08T03:47:54.699Z,4.50
2022-11-08T03:50:22.759Z,4.40
2022-11-08T03:52:52.309Z,4.50
2022-11-08T03:55:22.861Z,4.40
2022-11-08T03:57:51.942Z,4.50
2022-11-08T04:00:21.925Z,4.50
2022-11-08T04:02:50.302Z,4.30
2022-11-08T04:05:20.129Z,4.30
2022-11-08T04:07:48.999Z,4.10
2022-11-08T04:10:17.933Z,3.90
2022-11-08T04:13:03.705Z,3.80
2022-11-08T04:15:32.549Z,3.90
2022-11-08T04:18:18.378Z,3.70
2022-11-08T04:21:07.026Z,3.70
2022-11-08T04:23:37.296Z,3.70
2022-11-08T04:26:07.390Z,3.70
2022-11-08T04:28:37.507Z,3.70
2022-11-08T04:31:08.664Z,3.70
2022-11-08T04:33:37.137Z,3.70
2022-11-08T04:36:09.308Z,3.60
2022-11-08T04:38:37.460Z,3.60
2022-11-08T04:41:07.193Z,3.50
2022-11-08T04:43:35.622Z,3.40
2022-11-08T04:46:05.739Z,3.40
2022-11-08T04:48:34.136Z,3.50
2022-11-08T04:51:08.882Z,3.40
2022-11-08T04:53:36.913Z,3.30
2022-11-08T04:56:06.980Z,3.50
2022-11-08T04:58:36.300Z,3.50
2022-11-08T05:01:06.044Z,3.60
2022-11-08T05:03:34.246Z,3.50
2022-11-08T05:06:03.268Z,3.60
2022-11-08T05:08:32.741Z,3.80
2022-11-08T05:11:05.125Z,3.60
2022-11-08T05:13:33.567Z,3.50
2022-11-08T05:16:02.645Z,3.50
2022-11-08T05:18:31.203Z,3.50
2022-11-08T05:21:14.555Z,3.50
2022-11-08T05:23:44.288Z,3.60
2022-11-08T05:26:12.653Z,3.60
2022-11-08T05:28:41.376Z,3.70
2022-11-08T05:31:10.088Z,3.70
2022-11-08T05:33:38.435Z,3.70
2022-11-08T05:36:08.409Z,3.70
2022-11-08T05:38:36.475Z,3.60
2022-11-08T05:41:07.237Z,3.60
2022-11-08T05:43:35.500Z,3.60
2022-11-08T05:46:03.616Z,3.60
2022-11-08T05:48:31.900Z,3.60
2022-11-08T05:51:00.107Z,3.60
2022-11-08T05:53:28.352Z,3.50
2022-11-08T05:55:59.639Z,3.50
2022-11-08T05:58:30.131Z,3.50
2022-11-08T06:01:02.289Z,3.50
2022-11-08T06:03:31.063Z,3.50
2022-11-08T06:06:03.364Z,3.50
2022-11-08T06:08:31.655Z,3.50
2022-11-08T06:11:04.623Z,3.40
2022-11-08T06:13:34.630Z,3.40
2022-11-08T06:16:03.830Z,3.40
2022-11-08T06:18:33.055Z,3.40
2022-11-08T06:21:01.796Z,3.40
2022-11-08T06:23:30.161Z,3.50
2022-11-08T06:25:58.674Z,3.40
2022-11-08T06:28:27.291Z,3.50
2022-11-08T06:30:59.120Z,3.40
2022-11-08T06:33:27.186Z,3.40
2022-11-08T06:35:55.622Z,3.40
2022-11-08T06:38:23.674Z,3.40
2022-11-08T06:40:51.675Z,3.40
2022-11-08T06:43:20.396Z,3.30
2022-11-08T06:45:48.815Z,3.20
2022-11-08T06:48:18.188Z,3.10
2022-11-08T06:50:46.236Z,3.10
2022-11-08T06:53:15.463Z,3.20
2022-11-08T06:55:43.772Z,3.20
2022-11-08T06:58:12.690Z,3.10
2022-11-08T07:00:40.686Z,3.10
2022-11-08T07:03:08.757Z,3.10
2022-11-08T07:05:38.269Z,3.10
2022-11-08T07:08:06.753Z,3.30
2022-11-08T07:10:36.464Z,3.30
2022-11-08T07:13:06.892Z,3.30
2022-11-08T07:15:36.706Z,3.20
2022-11-08T07:18:06.338Z,3.30
2022-11-08T07:20:34.931Z,3.20
2022-11-08T07:23:04.714Z,3.30
2022-11-08T07:25:33.132Z,3.30
2022-11-08T07:28:03.037Z,3.30
2022-11-08T07:30:32.324Z,3.40
2022-11-08T07:33:00.598Z,3.50
2022-11-08T07:35:29.170Z,3.60
2022-11-08T07:37:58.276Z,3.70
2022-11-08T07:40:27.970Z,3.80
2022-11-08T07:43:14.731Z,4.00
2022-11-08T07:45:43.465Z,4.20
2022-11-08T07:48:13.620Z,4.30
2022-11-08T07:50:42.940Z,4.40
2022-11-08T07:53:11.780Z,4.60
2022-11-08T07:55:41.958Z,4.60
2022-11-08T07:58:11.682Z,4.50
2022-11-08T08:00:41.851Z,4.50
2022-11-08T08:03:11.632Z,4.80
2022-11-08T08:05:42.195Z,5.00
2022-11-08T08:08:11.095Z,5.10
2022-11-08T08:10:41.227Z,5.10
2022-11-08T08:13:10.155Z,5.00
2022-11-08T08:15:38.398Z,5.00
2022-11-08T08:18:08.581Z,4.70
2022-11-08T08:20:38.442Z,5.00
2022-11-08T08:23:07.103Z,4.90
2022-11-08T08:25:35.650Z,5.10
2022-11-08T08:28:06.092Z,5.30
2022-11-08T08:30:34.489Z,5.60
2022-11-08T08:35:54.348Z,6.00
2022-11-08T08:38:22.883Z,6.10
2022-11-08T08:40:51.679Z,6.30
2022-11-08T08:43:21.914Z,6.40
2022-11-08T08:45:50.526Z,6.70
2022-11-08T08:48:18.845Z,7.10
2022-11-08T08:50:46.973Z,7.30
2022-11-08T08:53:15.231Z,7.50
2022-11-08T08:55:43.540Z,7.60
2022-11-08T08:58:12.050Z,7.70
2022-11-08T09:03:29.593Z,8.00
2022-11-08T09:05:58.967Z,8.20
2022-11-08T09:08:27.391Z,8.40
2022-11-08T09:10:56.251Z,8.40
2022-11-08T09:13:26.164Z,8.40
2022-11-08T09:15:56.187Z,8.50
2022-11-08T09:18:24.438Z,8.70
2022-11-08T09:20:52.515Z,8.70
2022-11-08T09:23:20.943Z,8.80
2022-11-08T09:25:49.321Z,9.00
2022-11-08T09:28:18.853Z,9.30
2022-11-08T09:30:46.942Z,9.50
2022-11-08T09:33:16.640Z,9.50
2022-11-08T09:35:46.305Z,9.90
2022-11-08T09:38:14.638Z,10.40
2022-11-08T09:40:51.056Z,10.60
2022-11-08T09:43:39.401Z,10.70
2022-11-08T09:46:10.580Z,10.50
2022-11-08T09:48:43.697Z,10.50
2022-11-08T09:51:15.413Z,10.70
2022-11-08T09:53:49.329Z,10.90
2022-11-08T09:56:23.578Z,11.10
2022-11-08T09:58:55.353Z,11.20
2022-11-08T10:01:27.151Z,11.50
2022-11-08T10:03:59.922Z,11.80
2022-11-08T10:06:48.164Z,12.20
2022-11-08T10:09:31.683Z,12.10
2022-11-08T10:12:10.645Z,11.90
2022-11-08T10:14:54.153Z,12.00
2022-11-08T10:17:46.162Z,12.20
2022-11-08T10:20:24.582Z,12.40
2022-11-08T10:23:00.376Z,12.60
2022-11-08T10:25:35.421Z,12.60
2022-11-08T10:28:29.401Z,12.60
2022-11-08T10:30:57.931Z,12.50
2022-11-08T10:33:34.893Z,12.50
2022-11-08T10:36:10.746Z,12.50
2022-11-08T10:38:50.345Z,12.60
2022-11-08T10:41:24.760Z,12.90
2022-11-08T10:43:59.222Z,13.10
2022-11-08T10:46:41.654Z,13.50
2022-11-08T10:49:20.669Z,13.60
2022-11-08T10:51:51.957Z,13.60
2022-11-08T10:54:49.345Z,13.60
2022-11-08T10:57:23.665Z,13.70
2022-11-08T10:59:52.923Z,13.80
2022-11-08T11:02:29.701Z,13.90
2022-11-08T11:05:30.004Z,14.10
2022-11-08T11:08:05.699Z,14.10
2022-11-08T11:10:35.488Z,14.50
2022-11-08T11:13:06.825Z,15.00
2022-11-08T11:15:37.398Z,15.40
2022-11-08T11:18:06.794Z,15.80
2022-11-08T11:20:35.086Z,16.00
2022-11-08T11:23:04.796Z,16.10
2022-11-08T11:25:33.146Z,16.00
2022-11-08T11:28:01.702Z,15.80
2022-11-08T11:30:32.708Z,15.80
2022-11-08T11:33:07.217Z,16.60
2022-11-08T11:35:49.101Z,17.90
2022-11-08T11:38:38.901Z,18.90
2022-11-08T11:41:14.407Z,19.40
2022-11-08T11:43:48.139Z,19.60
2022-11-08T11:46:23.794Z,18.80
2022-11-08T11:49:01.481Z,17.40
2022-11-08T11:51:31.285Z,16.90
2022-11-08T11:54:04.076Z,17.20
2022-11-08T11:56:44.999Z,17.30
2022-11-08T11:59:46.646Z,17.40
2022-11-08T12:02:45.669Z,17.60
2022-11-08T12:05:28.975Z,18.80
2022-11-08T12:08:18.740Z,20.00
2022-11-08T12:11:05.944Z,20.60
2022-11-08T12:13:51.519Z,21.20
2022-11-08T12:16:28.456Z,21.90
2022-11-08T12:19:16.995Z,22.30
2022-11-08T12:21:54.889Z,22.70
2022-11-08T12:24:45.890Z,22.90
2022-11-08T12:27:25.240Z,23.00
2022-11-08T12:30:03.316Z,23.30
2022-11-08T12:33:00.846Z,23.80
2022-11-08T12:35:38.837Z,24.00
2022-11-08T12:38:19.394Z,24.20
2022-11-08T12:40:55.392Z,24.50
2022-11-08T12:43:38.837Z,24.70
2022-11-08T12:46:12.997Z,24.90
2022-11-08T12:49:07.298Z,24.50
2022-11-08T12:51:48.558Z,24.50
2022-11-08T12:54:23.864Z,24.70
2022-11-08T12:56:55.685Z,24.90
2022-11-08T12:59:29.585Z,25.10
2022-11-08T13:01:58.976Z,25.30
2022-11-08T13:04:46.628Z,25.40
2022-11-08T13:07:25.667Z,25.70
2022-11-08T13:09:59.264Z,25.70
2022-11-08T13:12:39.715Z,25.20
2022-11-08T13:15:16.321Z,24.50
2022-11-08T13:18:23.570Z,23.90
2022-11-08T13:20:51.747Z,23.30
2022-11-08T13:23:26.499Z,22.50
2022-11-08T13:25:55.307Z,21.90
2022-11-08T13:28:43.192Z,21.30
2022-11-08T13:31:31.484Z,20.60
2022-11-08T13:34:17.996Z,20.20
2022-11-08T13:37:01.170Z,19.90
2022-11-08T13:39:57.110Z,19.50
2022-11-08T13:42:59.992Z,19.20
2022-11-08T13:45:31.858Z,19.30
2022-11-08T13:48:03.740Z,18.90
2022-11-08T13:50:49.680Z,18.70
2022-11-08T13:53:57.767Z,18.60
2022-11-08T13:56:48.181Z,18.40
2022-11-08T13:59:58.733Z,18.30
2022-11-08T14:02:42.772Z,18.30
2022-11-08T14:05:44.174Z,18.30
2022-11-08T14:08:23.914Z,18.40
2022-11-08T14:11:25.400Z,19.10
2022-11-08T14:14:16.272Z,20.70
2022-11-08T14:16:58.035Z,24.20
2022-11-08T14:19:28.038Z,27.20
2022-11-08T14:21:59.795Z,28.20
2022-11-08T14:24:30.120Z,29.00
2022-11-08T14:26:58.242Z,28.80
2022-11-08T14:29:26.622Z,28.80
2022-11-08T14:32:06.287Z,29.20
2022-11-08T14:34:36.588Z,29.50
2022-11-08T14:37:12.338Z,29.50
2022-11-08T14:39:40.376Z,28.60
2022-11-08T14:42:23.573Z,27.20
2022-11-08T14:44:55.015Z,24.90
2022-11-08T14:47:30.236Z,23.30
2022-11-08T14:49:59.256Z,21.90
2022-11-08T14:52:31.211Z,20.70
2022-11-08T14:55:05.639Z,20.10
2022-11-08T14:57:37.388Z,19.60
2022-11-08T15:00:14.645Z,19.10
2022-11-08T15:02:45.561Z,18.60
2022-11-08T15:05:37.688Z,18.30
2022-11-08T15:08:16.547Z,18.00
2022-11-08T15:10:54.928Z,17.70
2022-11-08T15:13:23.201Z,17.50
2022-11-08T15:15:55.354Z,17.30
2022-11-08T15:18:28.225Z,17.00
2022-11-08T15:20:58.247Z,16.80
2022-11-08T15:23:35.727Z,16.60
2022-11-08T15:26:03.749Z,16.50
2022-11-08T15:28:34.067Z,16.30
2022-11-08T15:31:04.946Z,16.20
2022-11-08T15:33:36.788Z,16.10
2022-11-08T15:36:12.308Z,15.90
2022-11-08T15:38:43.177Z,15.60
2022-11-08T15:41:32.909Z,15.30
2022-11-08T15:44:23.017Z,15.30
2022-11-08T15:46:51.655Z,15.10
2022-11-08T15:49:21.827Z,15.10
2022-11-08T15:51:50.959Z,15.00
2022-11-08T15:54:21.397Z,14.70
2022-11-08T15:56:50.609Z,14.50
2022-11-08T15:59:21.713Z,14.30
2022-11-08T16:01:56.176Z,14.20
2022-11-08T16:04:24.844Z,14.10
2022-11-08T16:06:53.006Z,14.10
2022-11-08T16:09:23.697Z,14.00
2022-11-08T16:11:52.025Z,13.80
2022-11-08T16:14:22.137Z,13.60
2022-11-08T16:16:50.618Z,13.50
2022-11-08T16:19:20.836Z,13.50
2022-11-08T16:21:48.899Z,13.40
2022-11-08T16:24:17.184Z,13.20
2022-11-08T16:26:47.855Z,13.20
2022-11-08T16:29:23.790Z,13.00
2022-11-08T16:31:52.571Z,13.00
2022-11-08T16:34:20.989Z,12.90
2022-11-08T16:36:50.845Z,13.00
2022-11-08T16:39:22.325Z,12.80
2022-11-08T16:41:51.749Z,12.80
2022-11-08T16:44:19.967Z,12.70
2022-11-08T16:46:48.204Z,12.80
2022-11-08T16:49:22.306Z,12.60
2022-11-08T16:51:50.630Z,12.70
2022-11-08T16:54:20.772Z,12.60
2022-11-08T16:56:48.839Z,12.60
2022-11-08T16:59:18.413Z,12.60
2022-11-08T17:01:47.172Z,12.50
2022-11-08T17:04:15.500Z,12.60
2022-11-08T17:06:43.950Z,12.50
2022-11-08T17:09:12.071Z,12.30
2022-11-08T17:11:40.855Z,12.30
2022-11-08T17:14:09.004Z,12.30
2022-11-08T17:16:38.479Z,12.20
2022-11-08T17:19:06.484Z,12.30
2022-11-08T17:21:49.856Z,12.20
2022-11-08T17:24:21.903Z,12.10
2022-11-08T17:26:51.199Z,12.10
2022-11-08T17:29:19.293Z,12.20
2022-11-08T17:31:49.269Z,12.00
2022-11-08T17:34:17.374Z,11.90
2022-11-08T17:36:45.450Z,11.90
2022-11-08T17:39:14.427Z,11.90
2022-11-08T17:41:42.579Z,11.80
2022-11-08T17:44:10.655Z,11.70
2022-11-08T17:46:38.739Z,11.60
2022-11-08T17:49:08.384Z,11.60
2022-11-08T17:51:36.731Z,11.60
2022-11-08T17:54:05.008Z,11.70
2022-11-08T17:56:33.098Z,11.50
2022-11-08T17:59:01.079Z,11.40
2022-11-08T18:01:31.264Z,11.40
2022-11-08T18:03:59.547Z,11.40
2022-11-08T18:06:29.060Z,11.40
2022-11-08T18:08:57.986Z,11.30
2022-11-08T18:11:26.130Z,11.20
2022-11-08T18:13:54.211Z,11.20
2022-11-08T18:16:23.154Z,11.10
2022-11-08T18:18:51.869Z,11.10
2022-11-08T18:21:20.752Z,11.10
2022-11-08T18:23:50.823Z,11.10
2022-11-08T18:26:19.780Z,10.90
2022-11-08T18:28:47.895Z,11.10
2022-11-08T18:31:18.309Z,11.00
2022-11-08T18:33:46.847Z,10.90
2022-11-08T18:36:17.989Z,10.80
2022-11-08T18:38:46.288Z,10.70
2022-11-08T18:41:17.624Z,10.70
2022-11-08T18:43:46.114Z,10.60
2022-11-08T18:46:15.572Z,10.60
2022-11-08T18:48:44.025Z,10.50
2022-11-08T18:51:14.226Z,10.40
2022-11-08T18:53:42.939Z,10.40
2022-11-08T18:56:12.027Z,10.40
2022-11-08T18:58:41.426Z,10.40
2022-11-08T19:01:09.457Z,10.30
2022-11-08T19:03:37.684Z,10.20
2022-11-08T19:06:06.558Z,10.10
2022-11-08T19:08:36.617Z,10.20
2022-11-08T19:11:07.889Z,10.10
2022-11-08T19:13:37.941Z,10.00
2022-11-08T19:16:09.054Z,9.90
2022-11-08T19:18:37.873Z,9.90
2022-11-08T19:21:07.936Z,10.10
2022-11-08T19:23:36.377Z,10.00
2022-11-08T19:26:06.561Z,10.10
2022-11-08T19:28:38.325Z,10.20
2022-11-08T19:31:08.831Z,10.10
2022-11-08T19:33:37.684Z,10.00
2022-11-08T19:36:08.399Z,10.00
2022-11-08T19:38:37.599Z,10.00
2022-11-08T19:41:07.121Z,10.00
2022-11-08T19:43:35.443Z,10.00
2022-11-08T19:46:05.535Z,10.00
2022-11-08T19:48:37.926Z,9.90
2022-11-08T19:51:08.010Z,9.90
2022-11-08T19:53:36.254Z,9.90
2022-11-08T19:56:06.085Z,9.80
2022-11-08T19:58:35.204Z,9.80
2022-11-08T20:01:08.182Z,9.80
2022-11-08T20:03:37.747Z,9.80
2022-11-08T20:06:06.569Z,9.70
2022-11-08T20:08:35.090Z,9.70
2022-11-08T20:11:10.814Z,9.70
2022-11-08T20:13:38.831Z,9.70
2022-11-08T20:16:14.459Z,9.90
2022-11-08T20:18:44.393Z,9.80
2022-11-08T20:21:15.556Z,9.80
2022-11-08T20:23:44.474Z,9.60
2022-11-08T20:26:16.400Z,9.70
2022-11-08T20:28:55.191Z,9.60
2022-11-08T20:31:24.124Z,9.60
2022-11-08T20:33:54.586Z,9.70
2022-11-08T20:36:25.309Z,9.70
2022-11-08T20:38:58.346Z,9.70
2022-11-08T20:41:30.107Z,9.70
2022-11-08T20:43:58.199Z,9.70
2022-11-08T20:46:26.207Z,9.70
2022-11-08T20:49:01.043Z,9.70
2022-11-08T20:51:30.528Z,9.80
2022-11-08T20:53:59.436Z,9.70
2022-11-08T20:56:28.963Z,9.70
2022-11-08T20:58:57.667Z,9.60
2022-11-08T21:01:27.979Z,9.70
2022-11-08T21:04:00.854Z,9.70
2022-11-08T21:06:33.014Z,9.60
2022-11-08T21:09:23.343Z,9.60
2022-11-08T21:11:51.994Z,9.50
2022-11-08T21:14:20.180Z,9.60
2022-11-08T21:17:19.583Z,9.80
2022-11-08T21:19:37.558Z,9.50
2022-11-08T21:22:17.957Z,9.60
2022-11-08T21:24:47.322Z,9.50
2022-11-08T21:27:15.871Z,9.50
2022-11-08T21:29:43.942Z,9.50
2022-11-08T21:32:14.092Z,9.50
2022-11-08T21:34:46.165Z,9.40
2022-11-08T21:37:14.809Z,9.40
2022-11-08T21:39:42.913Z,9.50
2022-11-08T21:42:10.948Z,9.40
2022-11-08T21:44:39.503Z,9.30
2022-11-08T21:47:07.672Z,9.40
2022-11-08T21:49:35.740Z,9.40
2022-11-08T21:52:05.491Z,9.40
2022-11-08T21:54:34.527Z,9.30
2022-11-08T21:57:03.775Z,9.20
2022-11-08T21:59:31.746Z,9.20
2022-11-08T22:01:59.701Z,9.20
2022-11-08T22:04:27.709Z,9.10
2022-11-08T22:06:55.760Z,9.00
2022-11-08T22:09:25.119Z,9.00
2022-11-08T22:11:53.104Z,8.90
2022-11-08T22:14:21.131Z,8.90
2022-11-08T22:16:49.057Z,8.80
2022-11-08T22:19:17.043Z,8.90
2022-11-08T22:21:46.181Z,9.00
2022-11-08T22:24:17.162Z,8.70
2022-11-08T22:26:47.272Z,8.70
2022-11-08T22:29:15.685Z,8.70
2022-11-08T22:31:44.101Z,8.70
2022-11-08T22:34:12.954Z,8.60
2022-11-08T22:36:45.191Z,8.50
2022-11-08T22:39:14.364Z,8.40
2022-11-08T22:41:42.474Z,8.40
2022-11-08T22:44:12.925Z,8.30
2022-11-08T22:46:41.581Z,8.40
2022-11-08T22:49:09.849Z,8.40
2022-11-08T22:51:38.079Z,8.40
2022-11-08T22:54:06.509Z,8.40
2022-11-08T22:56:35.244Z,8.50
2022-11-08T22:59:03.616Z,8.50
2022-11-08T23:01:33.343Z,8.50
2022-11-08T23:04:01.475Z,8.50
2022-11-08T23:06:29.515Z,8.70
2022-11-08T23:08:57.499Z,8.60
2022-11-08T23:11:43.164Z,8.60
2022-11-08T23:14:33.968Z,8.80
2022-11-08T23:17:08.102Z,8.60
2022-11-08T23:19:53.594Z,8.60
2022-11-08T23:22:39.475Z,8.60
2022-11-08T23:25:08.234Z,8.50
2022-11-08T23:27:53.728Z,8.50
2022-11-08T23:30:39.370Z,8.60
2022-11-08T23:33:08.791Z,8.60
2022-11-08T23:35:36.943Z,8.60
2022-11-08T23:38:04.964Z,8.80
2022-11-08T23:40:50.575Z,8.90
2022-11-08T23:43:38.169Z,8.80
2022-11-08T23:46:07.928Z,8.80
2022-11-08T23:48:38.220Z,8.70
2022-11-08T23:51:07.248Z,8.70
2022-11-08T23:53:37.367Z,8.70
2022-11-08T23:56:06.011Z,8.70
2022-11-08T23:58:34.682Z,8.70
